createdAt,value
2023-04-12T00:02:06.080Z,7.59
2023-04-12T00:05:24.004Z,7.52
2023-04-12T00:08:40.715Z,7.50
2023-04-12T00:11:58.021Z,7.51
2023-04-12T00:15:16.517Z,7.47
2023-04-12T00:18:32.883Z,7.47
2023-04-12T00:21:49.134Z,7.52
2023-04-12T00:25:06.234Z,7.53
2023-04-12T00:28:22.878Z,7.50
2023-04-12T00:31:40.060Z,7.42
2023-04-12T00:34:57.534Z,7.50
2023-04-12T00:38:15.456Z,7.47
2023-04-12T00:41:32.241Z,7.47
2023-04-12T00:44:48.761Z,7.41
2023-04-12T00:48:05.518Z,7.37
2023-04-12T00:51:23.535Z,7.36
2023-04-12T00:54:41.326Z,7.37
2023-04-12T00:58:00.263Z,7.37
2023-04-12T01:01:18.235Z,7.40
2023-04-12T01:04:38.026Z,7.38
2023-04-12T01:08:01.728Z,7.35
2023-04-12T01:11:24.807Z,7.30
2023-04-12T01:14:48.592Z,7.26
2023-04-12T01:18:11.207Z,7.20
2023-04-12T01:21:33.730Z,7.25
2023-04-12T01:25:04.814Z,7.16
2023-04-12T01:28:26.204Z,7.15
2023-04-12T01:31:43.984Z,7.03
2023-04-12T01:35:01.509Z,7.00
2023-04-12T01:38:18.631Z,6.98
2023-04-12T01:41:34.955Z,7.01
2023-04-12T01:44:51.340Z,7.05
2023-04-12T01:48:08.513Z,6.90
2023-04-12T01:51:33.790Z,6.89
2023-04-12T01:54:54.320Z,6.86
2023-04-12T01:58:13.198Z,6.84
2023-04-12T02:01:31.968Z,6.83
2023-04-12T02:04:49.547Z,6.86
2023-04-12T02:08:06.856Z,6.75
2023-04-12T02:11:23.423Z,6.73
2023-04-12T02:14:40.093Z,6.73
2023-04-12T02:17:56.728Z,6.80
2023-04-12T02:21:14.053Z,6.80
2023-04-12T02:24:31.860Z,6.74
2023-04-12T02:27:49.692Z,6.76
2023-04-12T02:31:06.971Z,6.82
2023-04-12T02:34:23.861Z,6.68
2023-04-12T02:37:42.475Z,6.76
2023-04-12T02:40:58.814Z,6.77
2023-04-12T02:44:15.314Z,6.66
2023-04-12T02:47:33.787Z,6.77
2023-04-12T02:50:50.954Z,6.80
2023-04-12T02:54:09.061Z,6.75
2023-04-12T02:57:30.275Z,6.74
2023-04-12T03:00:48.984Z,6.73
2023-04-12T03:04:06.352Z,6.73
2023-04-12T03:07:31.452Z,6.74
2023-04-12T03:10:48.034Z,6.70
2023-04-12T03:14:05.330Z,6.69
2023-04-12T03:17:22.151Z,6.66
2023-04-12T03:20:40.198Z,6.67
2023-04-12T03:24:00.063Z,6.69
2023-04-12T03:27:16.739Z,6.66
2023-04-12T03:30:33.531Z,6.72
2023-04-12T03:33:49.942Z,6.73
2023-04-12T03:37:09.039Z,6.70
2023-04-12T03:40:27.395Z,6.73
2023-04-12T03:43:45.484Z,6.66
2023-04-12T03:47:03.645Z,6.60
2023-04-12T03:50:23.162Z,6.60
2023-04-12T03:53:43.836Z,6.60
2023-04-12T03:57:02.995Z,6.67
2023-04-12T04:00:36.986Z,6.69
2023-04-12T04:03:56.340Z,6.68
2023-04-12T04:07:14.364Z,6.70
2023-04-12T04:10:33.115Z,6.71
2023-04-12T04:13:49.997Z,6.61
2023-04-12T04:17:08.153Z,6.51
2023-04-12T04:20:26.006Z,6.53
2023-04-12T04:23:45.573Z,6.52
2023-04-12T04:27:03.571Z,6.54
2023-04-12T04:30:23.550Z,6.60
2023-04-12T04:33:39.909Z,6.61
2023-04-12T04:36:58.598Z,6.55
2023-04-12T04:40:21.493Z,6.61
2023-04-12T04:43:40.969Z,6.54
2023-04-12T04:46:57.585Z,6.46
2023-04-12T04:50:16.569Z,6.53
2023-04-12T04:53:32.952Z,6.57
2023-04-12T04:56:49.661Z,6.50
2023-04-12T05:00:08.899Z,6.56
2023-04-12T05:03:29.769Z,6.58
2023-04-12T05:06:45.361Z,6.54
2023-04-12T05:10:02.407Z,6.54
2023-04-12T05:13:19.859Z,6.55
2023-04-12T05:16:36.947Z,6.56
2023-04-12T05:19:57.679Z,6.57
2023-04-12T05:23:15.325Z,6.58
2023-04-12T05:26:31.674Z,6.61
2023-04-12T05:29:48.095Z,6.62
2023-04-12T05:33:08.082Z,6.64
2023-04-12T05:36:26.899Z,6.71
2023-04-12T05:39:43.481Z,6.62
2023-04-12T05:43:00.552Z,6.59
2023-04-12T05:46:18.524Z,6.60
2023-04-12T05:49:38.838Z,6.58
2023-04-12T05:52:58.464Z,6.56
2023-04-12T05:56:17.731Z,6.59
2023-04-12T05:59:34.248Z,6.60
2023-04-12T06:02:51.434Z,6.63
2023-04-12T06:06:08.088Z,6.58
2023-04-12T06:09:25.729Z,6.56
2023-04-12T06:12:42.654Z,6.67
2023-04-12T06:15:59.595Z,6.74
2023-04-12T06:19:19.274Z,6.74
2023-04-12T06:22:36.729Z,6.76
2023-04-12T06:25:55.459Z,6.73
2023-04-12T06:29:12.062Z,6.68
2023-04-12T06:32:29.211Z,6.82
2023-04-12T06:35:46.018Z,6.73
2023-04-12T06:39:02.494Z,6.83
2023-04-12T06:42:21.713Z,6.84
2023-04-12T06:45:38.031Z,6.80
2023-04-12T06:48:54.592Z,6.92
2023-04-12T06:52:10.942Z,6.83
2023-04-12T06:55:30.231Z,6.91
2023-04-12T06:58:46.622Z,6.98
2023-04-12T07:02:03.821Z,6.86
2023-04-12T07:05:21.629Z,6.99
2023-04-12T07:08:43.273Z,6.96
2023-04-12T07:11:59.558Z,7.13
2023-04-12T07:15:24.692Z,7.22
2023-04-12T07:18:53.312Z,7.25
2023-04-12T07:22:10.050Z,7.24
2023-04-12T07:25:28.122Z,7.12
2023-04-12T07:28:44.961Z,7.24
2023-04-12T07:32:01.767Z,7.29
2023-04-12T07:35:19.209Z,7.33
2023-04-12T07:38:35.605Z,7.34
2023-04-12T07:41:52.725Z,7.35
2023-04-12T07:45:09.347Z,7.38
2023-04-12T07:48:25.820Z,7.22
2023-04-12T07:51:43.404Z,7.33
2023-04-12T07:55:00.156Z,7.39
2023-04-12T07:58:16.526Z,7.45
2023-04-12T08:01:33.181Z,7.36
2023-04-12T08:04:49.577Z,7.41
2023-04-12T08:08:07.057Z,7.50
2023-04-12T08:11:23.265Z,7.60
2023-04-12T08:14:40.877Z,7.72
2023-04-12T08:17:57.605Z,7.83
2023-04-12T08:21:14.658Z,7.96
2023-04-12T08:24:31.303Z,7.91
2023-04-12T08:27:51.314Z,7.93
2023-04-12T08:31:08.417Z,8.02
2023-04-12T08:34:26.051Z,8.10
2023-04-12T08:37:42.858Z,8.17
2023-04-12T08:40:59.711Z,8.36
2023-04-12T08:44:18.502Z,8.46
2023-04-12T08:47:35.233Z,8.53
2023-04-12T08:50:54.696Z,8.71
2023-04-12T08:54:09.225Z,8.87
2023-04-12T08:57:26.033Z,8.93
2023-04-12T09:00:44.259Z,9.15
2023-04-12T09:04:01.005Z,9.28
2023-04-12T09:07:18.661Z,9.15
2023-04-12T09:10:43.744Z,9.26
2023-04-12T09:14:02.311Z,9.28
2023-04-12T09:17:34.734Z,9.23
2023-04-12T09:20:53.598Z,9.41
2023-04-12T09:24:18.565Z,9.51
2023-04-12T09:27:35.352Z,9.55
2023-04-12T09:30:53.881Z,9.57
2023-04-12T09:34:18.608Z,9.79
2023-04-12T09:37:35.216Z,9.91
2023-04-12T09:40:51.998Z,9.99
2023-04-12T09:44:10.505Z,10.04
2023-04-12T09:47:28.300Z,10.15
2023-04-12T09:50:45.654Z,10.45
2023-04-12T09:54:04.721Z,10.87
2023-04-12T09:57:24.188Z,11.14
2023-04-12T10:00:42.489Z,11.60
2023-04-12T10:03:59.924Z,12.01
2023-04-12T10:07:17.878Z,12.43
2023-04-12T10:10:34.447Z,11.83
2023-04-12T10:13:53.050Z,11.61
2023-04-12T10:17:11.877Z,11.64
2023-04-12T10:20:30.421Z,11.37
2023-04-12T10:23:51.216Z,11.24
2023-04-12T10:27:07.789Z,11.41
2023-04-12T10:30:36.368Z,11.27
2023-04-12T10:33:54.029Z,11.14
2023-04-12T10:37:11.175Z,10.94
2023-04-12T10:40:28.286Z,10.76
2023-04-12T10:43:45.070Z,10.68
2023-04-12T10:47:02.263Z,10.72
2023-04-12T10:50:39.776Z,10.73
2023-04-12T10:53:57.465Z,10.63
2023-04-12T10:57:17.594Z,10.59
2023-04-12T11:00:45.824Z,10.65
2023-04-12T11:04:25.350Z,10.54
2023-04-12T11:08:02.875Z,10.53
2023-04-12T11:11:30.287Z,10.52
2023-04-12T11:14:53.859Z,10.51
2023-04-12T11:18:16.569Z,10.51
2023-04-12T11:21:34.386Z,10.49
2023-04-12T11:24:54.469Z,10.62
2023-04-12T11:28:21.381Z,10.62
2023-04-12T11:31:31.358Z,10.57
2023-04-12T11:34:49.161Z,10.70
2023-04-12T11:38:06.089Z,10.79
2023-04-12T11:41:24.884Z,10.80
2023-04-12T11:44:56.475Z,10.86
2023-04-12T11:48:04.178Z,10.89
2023-04-12T11:51:34.607Z,10.93
2023-04-12T11:54:59.388Z,10.98
2023-04-12T11:58:15.857Z,10.93
2023-04-12T12:01:33.243Z,11.08
2023-04-12T12:04:53.280Z,11.11
2023-04-12T12:08:10.740Z,11.20
2023-04-12T12:11:28.395Z,11.22
2023-04-12T12:14:45.588Z,11.14
2023-04-12T12:18:03.858Z,11.03
2023-04-12T12:21:23.788Z,11.06
2023-04-12T12:24:43.614Z,11.06
2023-04-12T12:28:06.473Z,11.06
2023-04-12T12:31:27.505Z,11.26
2023-04-12T12:34:46.157Z,11.34
2023-04-12T12:38:05.737Z,11.37
2023-04-12T12:41:30.822Z,11.44
2023-04-12T12:44:48.355Z,11.29
2023-04-12T12:48:09.104Z,11.21
2023-04-12T12:51:28.284Z,11.21
2023-04-12T12:54:46.472Z,11.04
2023-04-12T12:58:10.104Z,11.09
2023-04-12T13:01:28.519Z,11.21
2023-04-12T13:04:48.808Z,11.25
2023-04-12T13:08:06.637Z,11.22
2023-04-12T13:11:23.547Z,11.20
2023-04-12T13:14:41.040Z,11.27
2023-04-12T13:17:59.577Z,11.31
2023-04-12T13:21:17.298Z,11.34
2023-04-12T13:24:33.584Z,11.36
2023-04-12T13:27:52.241Z,11.31
2023-04-12T13:31:10.961Z,11.26
2023-04-12T13:34:27.527Z,11.27
2023-04-12T13:37:44.933Z,11.17
2023-04-12T13:41:01.862Z,11.16
2023-04-12T13:44:18.853Z,11.13
2023-04-12T13:47:37.266Z,11.14
2023-04-12T13:50:55.499Z,11.13
2023-04-12T13:54:12.795Z,11.10
2023-04-12T13:57:29.498Z,10.97
2023-04-12T14:00:46.347Z,10.84
2023-04-12T14:04:02.741Z,10.84
2023-04-12T14:07:19.755Z,10.90
2023-04-12T14:10:37.443Z,10.93
2023-04-12T14:13:53.972Z,10.91
2023-04-12T14:17:10.614Z,10.86
2023-04-12T14:20:27.487Z,10.82
2023-04-12T14:23:44.124Z,10.90
2023-04-12T14:27:02.014Z,10.92
2023-04-12T14:30:19.952Z,10.93
2023-04-12T14:33:36.507Z,10.95
2023-04-12T14:36:57.219Z,10.95
2023-04-12T14:40:15.773Z,10.92
2023-04-12T14:43:32.737Z,10.95
2023-04-12T14:46:49.486Z,10.95
2023-04-12T14:50:06.421Z,10.98
2023-04-12T14:53:24.019Z,10.88
2023-04-12T14:56:47.832Z,10.75
2023-04-12T14:59:59.573Z,10.62
2023-04-12T15:03:16.424Z,10.75
2023-04-12T15:11:29.475Z,10.62
2023-04-12T15:14:46.283Z,10.63
2023-04-12T15:18:04.307Z,10.66
2023-04-12T15:21:21.371Z,10.63
2023-04-12T15:24:37.822Z,10.64
2023-04-12T15:27:54.974Z,10.57
2023-04-12T15:31:12.928Z,10.59
2023-04-12T15:34:31.018Z,10.44
2023-04-12T15:37:47.624Z,10.51
2023-04-12T15:41:07.637Z,10.52
2023-04-12T15:44:25.981Z,10.46
2023-04-12T15:47:42.380Z,10.41
2023-04-12T15:51:00.675Z,10.40
2023-04-12T15:54:17.326Z,10.38
2023-04-12T15:57:34.492Z,10.33
2023-04-12T16:00:51.321Z,10.32
2023-04-12T16:04:08.049Z,10.21
2023-04-12T16:07:25.313Z,10.25
2023-04-12T16:10:43.777Z,10.22
2023-04-12T16:14:01.347Z,10.20
2023-04-12T16:17:21.872Z,10.17
2023-04-12T16:20:38.431Z,10.19
2023-04-12T16:23:56.480Z,10.17
2023-04-12T16:27:13.697Z,10.16
2023-04-12T16:30:30.656Z,10.17
2023-04-12T16:33:47.470Z,10.16
2023-04-12T16:37:04.512Z,10.08
2023-04-12T16:40:22.440Z,10.03
2023-04-12T16:43:39.081Z,10.01
2023-04-12T16:46:57.724Z,9.98
2023-04-12T16:50:16.449Z,10.00
2023-04-12T16:56:36.421Z,10.03
2023-04-12T16:59:53.495Z,9.96
2023-04-12T17:03:10.983Z,9.96
2023-04-12T17:06:29.001Z,9.94
2023-04-12T17:09:46.705Z,9.83
2023-04-12T17:13:05.422Z,9.82
2023-04-12T17:16:22.374Z,9.75
2023-04-12T17:19:39.237Z,9.72
2023-04-12T17:29:03.316Z,9.54
2023-04-12T17:32:22.139Z,9.52
2023-04-12T17:35:39.304Z,9.46
2023-04-12T17:41:59.495Z,9.36
2023-04-12T17:45:19.382Z,9.29
2023-04-12T17:48:38.211Z,9.26
2023-04-12T17:51:56.928Z,9.23
2023-04-12T17:55:18.055Z,9.16
2023-04-12T17:58:35.356Z,9.10
2023-04-12T18:01:53.755Z,8.96
2023-04-12T18:05:17.005Z,8.93
2023-04-12T18:08:33.437Z,8.95
2023-04-12T18:11:50.250Z,8.96
2023-04-12T18:15:09.281Z,8.96
2023-04-12T18:18:26.544Z,8.90
2023-04-12T18:21:48.755Z,8.92
2023-04-12T18:28:08.797Z,8.90
2023-04-12T18:31:26.179Z,8.87
2023-04-12T18:34:42.777Z,8.78
2023-04-12T18:38:00.789Z,8.76
2023-04-12T18:41:23.038Z,8.71
2023-04-12T18:44:42.343Z,8.68
2023-04-12T18:48:01.120Z,8.61
2023-04-12T18:51:18.361Z,8.60
2023-04-12T18:54:36.235Z,8.58
2023-04-12T18:57:54.209Z,8.57
2023-04-12T19:01:14.711Z,8.39
2023-04-12T19:04:31.436Z,8.33
2023-04-12T19:07:51.751Z,8.31
2023-04-12T19:11:08.616Z,8.30
2023-04-12T19:14:31.443Z,8.28
2023-04-12T19:17:51.834Z,8.24
2023-04-12T19:21:12.147Z,8.23
2023-04-12T19:24:29.473Z,8.20
2023-04-12T19:27:47.093Z,8.08
2023-04-12T19:31:04.921Z,7.99
2023-04-12T19:34:22.878Z,7.91
2023-04-12T19:40:42.836Z,7.63
2023-04-12T19:44:00.507Z,7.47
2023-04-12T19:47:17.892Z,7.43
2023-04-12T19:50:37.272Z,7.50
2023-04-12T20:00:01.244Z,7.06
2023-04-12T20:03:17.622Z,6.93
2023-04-12T20:06:34.163Z,6.80
2023-04-12T20:12:55.423Z,6.59
2023-04-12T20:16:14.014Z,6.67
2023-04-12T20:19:30.829Z,6.71
2023-04-12T20:22:49.040Z,6.82
2023-04-12T20:26:06.531Z,6.95
2023-04-12T20:29:23.272Z,7.07
2023-04-12T20:32:44.676Z,7.16
2023-04-12T20:36:02.135Z,7.24
2023-04-12T20:39:20.648Z,7.25
2023-04-12T20:42:37.286Z,7.29
2023-04-12T20:45:54.774Z,7.32
2023-04-12T20:49:11.895Z,7.34
2023-04-12T20:52:28.622Z,7.33
2023-04-12T20:58:50.721Z,6.77
2023-04-12T21:02:07.950Z,6.56
2023-04-12T21:05:25.119Z,6.35
2023-04-12T21:08:44.058Z,6.06
2023-04-12T21:12:02.395Z,5.89
2023-04-12T21:15:25.180Z,5.73
2023-04-12T21:18:42.426Z,5.59
2023-04-12T21:21:59.135Z,5.49
2023-04-12T21:25:19.090Z,5.35
2023-04-12T21:28:35.450Z,5.32
2023-04-12T21:31:51.962Z,5.22
2023-04-12T21:35:10.783Z,5.14
2023-04-12T21:41:30.644Z,5.59
2023-04-12T21:44:48.648Z,5.57
2023-04-12T21:48:05.063Z,5.59
2023-04-12T21:51:22.000Z,5.65
2023-04-12T21:57:42.438Z,5.63
2023-04-12T22:00:59.700Z,5.65
2023-04-12T22:04:16.111Z,5.63
2023-04-12T22:07:34.658Z,5.62
2023-04-12T22:13:54.543Z,5.18
2023-04-12T22:17:12.853Z,5.02
2023-04-12T22:20:29.942Z,4.87
2023-04-12T22:26:49.709Z,4.51
2023-04-12T22:30:08.737Z,4.45
2023-04-12T22:33:25.245Z,4.41
2023-04-12T22:36:44.432Z,4.41
2023-04-12T22:40:02.828Z,4.35
2023-04-12T22:43:21.922Z,4.19
2023-04-12T22:46:40.320Z,4.02
2023-04-12T22:49:59.126Z,3.98
2023-04-12T22:53:16.891Z,3.97
2023-04-12T22:59:36.927Z,3.80
2023-04-12T23:02:57.258Z,3.78
2023-04-12T23:06:15.511Z,3.75
2023-04-12T23:09:33.831Z,3.73
2023-04-12T23:12:51.123Z,3.63
2023-04-12T23:16:07.926Z,3.52
2023-04-12T23:19:24.328Z,3.43
2023-04-12T23:22:55.746Z,3.40
2023-04-12T23:26:01.932Z,3.39
2023-04-12T23:29:18.721Z,3.30
2023-04-12T23:32:35.213Z,3.30
2023-04-12T23:35:53.359Z,3.29
2023-04-12T23:39:11.411Z,3.15
2023-04-12T23:42:27.743Z,3.11
2023-04-12T23:45:44.903Z,3.03
2023-04-12T23:49:01.955Z,3.07
2023-04-12T23:52:19.026Z,3.07
2023-04-12T23:58:38.579Z,3.00
